createdAt,value
2019-02-11T00:01:33.646Z,84.10
2019-02-11T00:04:04.848Z,85.30
2019-02-11T00:06:36.045Z,86.10
2019-02-11T00:09:08.875Z,87.00
2019-02-11T00:11:41.175Z,87.60
2019-02-11T00:14:15.169Z,88.60
2019-02-11T00:16:46.827Z,89.50
2019-02-11T00:19:18.099Z,90.10
2019-02-11T00:21:49.245Z,90.20
2019-02-11T00:24:20.499Z,90.80
2019-02-11T00:26:54.025Z,90.70
2019-02-11T00:29:25.452Z,91.10
2019-02-11T00:31:56.676Z,91.20
2019-02-11T00:34:27.938Z,92.00
2019-02-11T00:36:59.162Z,92.00
2019-02-11T00:39:30.421Z,92.20
2019-02-11T00:42:01.605Z,92.10
2019-02-11T00:44:32.846Z,92.40
2019-02-11T00:47:04.214Z,92.30
2019-02-11T00:49:35.487Z,92.90
2019-02-11T00:52:06.687Z,92.60
2019-02-11T00:54:37.852Z,92.70
2019-02-11T00:57:10.429Z,92.80
2019-02-11T00:59:41.681Z,92.90
2019-02-11T01:02:12.977Z,92.90
2019-02-11T01:04:44.254Z,92.80
2019-02-11T01:07:15.439Z,93.20
2019-02-11T01:12:35.675Z,93.40
2019-02-11T01:15:09.017Z,93.90
2019-02-11T01:17:40.186Z,93.70
2019-02-11T01:20:35.053Z,94.20
2019-02-11T01:22:56.129Z,94.10
2019-02-11T01:25:42.306Z,94.50
2019-02-11T01:28:13.429Z,94.40
2019-02-11T01:33:22.473Z,94.40
2019-02-11T01:35:53.885Z,94.30
2019-02-11T01:38:25.135Z,94.40
2019-02-11T01:40:56.284Z,94.30
2019-02-11T01:43:35.793Z,94.40
2019-02-11T01:46:00.361Z,94.70
2019-02-11T01:48:34.767Z,94.70
2019-02-11T01:51:07.069Z,94.90
2019-02-11T01:53:38.234Z,95.10
2019-02-11T01:56:09.437Z,94.90
2019-02-11T01:58:40.682Z,95.10
2019-02-11T02:01:13.333Z,94.90
2019-02-11T02:03:44.584Z,94.80
2019-02-11T02:06:15.760Z,94.90
2019-02-11T02:08:47.033Z,95.20
2019-02-11T02:14:26.313Z,95.10
2019-02-11T02:16:57.538Z,95.40
2019-02-11T02:19:39.455Z,95.30
2019-02-11T02:22:10.578Z,95.50
2019-02-11T02:24:41.826Z,95.30
2019-02-11T02:27:13.044Z,95.70
2019-02-11T02:29:44.272Z,95.40
2019-02-11T02:32:16.333Z,95.30
2019-02-11T02:34:47.598Z,95.20
2019-02-11T02:37:21.370Z,95.40
2019-02-11T02:39:52.574Z,95.50
2019-02-11T02:42:23.777Z,95.50
2019-02-11T02:44:55.022Z,95.50
2019-02-11T02:47:26.205Z,95.50
2019-02-11T02:49:57.465Z,95.70
2019-02-11T02:52:28.561Z,95.70
2019-02-11T02:54:59.824Z,95.70
2019-02-11T02:57:31.017Z,95.70
2019-02-11T03:00:02.983Z,95.70
2019-02-11T03:02:36.087Z,95.70
2019-02-11T03:05:08.962Z,95.60
2019-02-11T03:07:40.145Z,95.60
2019-02-11T03:10:11.686Z,95.90
2019-02-11T03:12:42.877Z,96.00
2019-02-11T03:15:14.137Z,96.00
2019-02-11T03:17:45.253Z,96.00
2019-02-11T03:20:16.478Z,96.00
2019-02-11T03:22:47.713Z,95.90
2019-02-11T03:25:18.959Z,95.70
2019-02-11T03:27:50.143Z,95.90
2019-02-11T03:30:21.382Z,95.80
2019-02-11T03:32:53.745Z,95.90
2019-02-11T03:35:24.988Z,95.90
2019-02-11T03:37:56.219Z,95.80
2019-02-11T03:40:27.489Z,95.80
2019-02-11T03:42:58.625Z,95.80
2019-02-11T03:45:29.816Z,95.90
2019-02-11T03:48:00.985Z,95.90
2019-02-11T03:50:32.222Z,96.00
2019-02-11T03:53:03.429Z,96.10
2019-02-11T03:55:34.696Z,96.00
2019-02-11T03:58:05.888Z,96.10
2019-02-11T04:00:37.267Z,96.10
2019-02-11T04:03:08.472Z,96.10
2019-02-11T04:05:39.733Z,96.10
2019-02-11T04:08:17.004Z,96.30
2019-02-11T04:10:48.224Z,96.00
2019-02-11T04:13:19.334Z,95.80
2019-02-11T04:15:50.507Z,95.80
2019-02-11T04:18:21.668Z,95.90
2019-02-11T04:20:52.863Z,95.90
2019-02-11T04:23:25.086Z,95.80
2019-02-11T04:25:56.313Z,96.10
2019-02-11T04:28:27.590Z,96.00
2019-02-11T04:30:58.818Z,95.90
2019-02-11T04:33:30.021Z,96.00
2019-02-11T04:36:03.395Z,95.70
2019-02-11T04:38:34.615Z,95.80
2019-02-11T04:41:05.817Z,95.80
2019-02-11T04:43:36.952Z,95.80
2019-02-11T04:46:08.138Z,95.80
2019-02-11T04:48:39.263Z,95.80
2019-02-11T04:51:10.508Z,95.80
2019-02-11T04:53:41.692Z,95.90
2019-02-11T04:56:12.935Z,95.80
2019-02-11T04:58:46.986Z,95.70
2019-02-11T05:01:18.212Z,95.70
2019-02-11T05:03:49.415Z,95.60
2019-02-11T05:06:20.700Z,96.00
2019-02-11T05:08:51.859Z,95.70
2019-02-11T05:11:23.097Z,95.60
2019-02-11T05:16:44.737Z,95.70
2019-02-11T05:19:16.017Z,95.50
2019-02-11T05:21:47.269Z,95.60
2019-02-11T05:24:18.577Z,95.70
2019-02-11T05:26:49.822Z,95.70
2019-02-11T05:29:21.034Z,95.80
2019-02-11T05:31:52.199Z,95.60
2019-02-11T05:34:24.201Z,95.60
2019-02-11T05:36:55.434Z,95.60
2019-02-11T05:39:44.412Z,95.70
2019-02-11T05:42:15.746Z,95.60
2019-02-11T05:44:53.625Z,95.70
2019-02-11T05:47:19.814Z,95.70
2019-02-11T05:49:50.950Z,95.80
2019-02-11T05:52:22.130Z,96.10
2019-02-11T05:54:53.329Z,95.80
2019-02-11T05:57:24.465Z,95.70
2019-02-11T05:59:57.166Z,95.70
2019-02-11T06:02:29.798Z,95.70
2019-02-11T06:05:01.011Z,95.70
2019-02-11T06:07:32.174Z,95.90
2019-02-11T06:10:03.697Z,95.70
2019-02-11T06:12:34.982Z,95.70
2019-02-11T06:15:08.879Z,95.60
2019-02-11T06:17:40.105Z,95.70
2019-02-11T06:20:11.413Z,95.70
2019-02-11T06:22:42.741Z,95.60
2019-02-11T06:25:15.638Z,95.70
2019-02-11T06:27:48.384Z,95.70
2019-02-11T06:30:19.476Z,95.60
2019-02-11T06:32:52.238Z,95.60
2019-02-11T06:35:24.277Z,95.50
2019-02-11T06:37:56.006Z,95.50
2019-02-11T06:40:28.922Z,95.40
2019-02-11T06:43:00.106Z,95.40
2019-02-11T06:45:31.295Z,95.30
2019-02-11T06:48:02.587Z,95.30
2019-02-11T06:50:33.824Z,95.30
2019-02-11T06:53:05.257Z,95.30
2019-02-11T06:55:45.265Z,95.40
2019-02-11T06:58:12.037Z,95.40
2019-02-11T07:00:43.252Z,95.40
2019-02-11T07:03:14.547Z,95.20
2019-02-11T07:05:45.786Z,95.30
2019-02-11T07:08:17.030Z,95.10
2019-02-11T07:10:55.439Z,95.10
2019-02-11T07:13:21.078Z,95.00
2019-02-11T07:15:52.289Z,94.90
2019-02-11T07:18:23.558Z,95.00
2019-02-11T07:20:54.786Z,94.80
2019-02-11T07:23:26.032Z,94.50
2019-02-11T07:25:57.218Z,94.30
2019-02-11T07:28:28.470Z,94.40
2019-02-11T07:31:00.175Z,94.60
2019-02-11T07:33:33.275Z,94.50
2019-02-11T07:36:07.534Z,94.40
2019-02-11T07:38:40.269Z,94.50
2019-02-11T07:41:11.497Z,94.50
2019-02-11T07:43:44.342Z,94.90
2019-02-11T07:46:17.098Z,94.40
2019-02-11T07:48:48.267Z,94.30
2019-02-11T07:51:19.538Z,94.30
2019-02-11T07:53:50.765Z,94.30
2019-02-11T07:56:21.978Z,94.10
2019-02-11T07:58:53.229Z,93.70
2019-02-11T08:01:38.895Z,93.70
2019-02-11T08:04:10.171Z,93.70
2019-02-11T08:06:42.843Z,93.70
2019-02-11T08:09:13.995Z,93.70
2019-02-11T08:11:45.153Z,93.60
2019-02-11T08:14:16.334Z,93.70
2019-02-11T08:16:47.544Z,93.40
2019-02-11T08:19:18.809Z,93.20
2019-02-11T08:21:49.991Z,93.20
2019-02-11T08:24:21.248Z,93.20
2019-02-11T08:26:52.433Z,93.60
2019-02-11T08:29:23.670Z,93.10
2019-02-11T08:31:57.895Z,93.30
2019-02-11T08:34:30.608Z,92.70
2019-02-11T08:37:02.918Z,93.10
2019-02-11T08:39:34.159Z,93.00
2019-02-11T08:42:05.288Z,93.10
2019-02-11T08:44:36.526Z,92.50
2019-02-11T08:47:07.667Z,92.60
2019-02-11T08:49:38.918Z,92.30
2019-02-11T08:52:10.032Z,92.30
2019-02-11T08:54:41.313Z,92.20
2019-02-11T08:57:12.513Z,91.90
2019-02-11T08:59:43.697Z,92.00
2019-02-11T09:02:14.927Z,92.00
2019-02-11T09:04:47.595Z,91.50
2019-02-11T09:07:18.808Z,91.30
2019-02-11T09:09:49.964Z,91.00
2019-02-11T09:12:21.147Z,91.30
2019-02-11T09:14:52.407Z,90.90
2019-02-11T09:17:23.695Z,90.90
2019-02-11T09:19:54.937Z,91.20
2019-02-11T09:22:26.154Z,91.10
2019-02-11T09:24:57.407Z,90.90
2019-02-11T09:27:30.081Z,90.70
2019-02-11T09:30:01.255Z,90.70
2019-02-11T09:32:32.463Z,90.00
2019-02-11T09:35:03.687Z,89.60
2019-02-11T09:37:36.790Z,89.70
2019-02-11T09:40:11.104Z,89.10
2019-02-11T09:42:43.904Z,89.10
2019-02-11T09:45:21.026Z,87.60
2019-02-11T09:47:55.822Z,87.10
2019-02-11T09:50:41.443Z,87.70
2019-02-11T09:53:12.726Z,88.10
2019-02-11T09:55:43.989Z,87.40
2019-02-11T09:58:15.216Z,86.60
2019-02-11T10:00:46.743Z,86.50
2019-02-11T10:03:17.987Z,85.90
2019-02-11T10:05:50.315Z,85.20
2019-02-11T10:08:22.947Z,84.40
2019-02-11T10:10:54.223Z,86.00
2019-02-11T10:13:25.477Z,84.90
2019-02-11T10:15:56.737Z,84.50
2019-02-11T10:18:27.946Z,84.30
2019-02-11T10:21:00.206Z,83.80
2019-02-11T10:23:32.849Z,84.70
2019-02-11T10:26:04.326Z,82.80
2019-02-11T10:28:35.526Z,82.40
2019-02-11T10:31:06.795Z,82.60
2019-02-11T10:33:37.996Z,82.80
2019-02-11T10:36:09.265Z,80.50
2019-02-11T10:38:40.482Z,80.60
2019-02-11T10:41:11.661Z,79.40
2019-02-11T10:43:42.862Z,79.40
2019-02-11T10:46:20.824Z,78.20
2019-02-11T10:48:48.878Z,76.60
2019-02-11T10:51:19.702Z,75.30
2019-02-11T10:53:50.921Z,76.20
2019-02-11T10:56:25.174Z,76.40
2019-02-11T10:58:56.409Z,75.20
2019-02-11T11:01:27.702Z,74.10
2019-02-11T11:03:58.903Z,75.30
2019-02-11T11:06:30.137Z,75.30
2019-02-11T11:09:04.617Z,75.80
2019-02-11T11:11:35.942Z,75.50
2019-02-11T11:14:09.518Z,76.60
2019-02-11T11:16:44.873Z,76.50
2019-02-11T11:19:16.039Z,77.30
2019-02-11T11:21:47.269Z,77.30
2019-02-11T11:24:18.535Z,78.10
2019-02-11T11:26:49.717Z,79.10
2019-02-11T11:29:20.986Z,79.10
2019-02-11T11:31:52.217Z,78.50
2019-02-11T11:34:23.353Z,79.60
2019-02-11T11:36:54.562Z,79.40
2019-02-11T11:39:27.093Z,78.80
2019-02-11T11:41:58.261Z,79.60
2019-02-11T11:44:29.513Z,79.20
2019-02-11T11:47:01.759Z,80.10
2019-02-11T11:49:32.953Z,80.50
2019-02-11T11:52:04.705Z,80.90
2019-02-11T11:54:35.886Z,81.00
2019-02-11T11:57:08.359Z,80.70
2019-02-11T11:59:39.533Z,80.20
2019-02-11T12:02:15.262Z,79.80
2019-02-11T12:04:47.020Z,77.90
2019-02-11T12:07:19.858Z,78.50
2019-02-11T12:09:50.961Z,77.50
2019-02-11T12:12:23.730Z,77.40
2019-02-11T12:14:54.863Z,78.40
2019-02-11T12:17:26.143Z,79.70
2019-02-11T12:19:57.338Z,80.40
2019-02-11T12:22:28.578Z,81.90
2019-02-11T12:24:59.774Z,81.70
2019-02-11T12:27:30.962Z,81.60
2019-02-11T12:30:02.148Z,80.80
2019-02-11T12:32:33.359Z,80.40
2019-02-11T12:35:06.978Z,80.20
2019-02-11T12:37:38.217Z,79.80
2019-02-11T12:40:11.652Z,80.10
2019-02-11T12:42:42.821Z,79.00
2019-02-11T12:45:23.493Z,79.30
2019-02-11T12:47:54.740Z,78.20
2019-02-11T12:50:25.894Z,78.70
2019-02-11T12:52:57.134Z,79.10
2019-02-11T12:55:29.808Z,79.30
2019-02-11T12:58:01.015Z,78.30
2019-02-11T13:00:32.201Z,79.10
2019-02-11T13:03:03.835Z,79.00
2019-02-11T13:05:45.042Z,79.50
2019-02-11T13:08:07.917Z,81.20
2019-02-11T13:10:39.102Z,81.00
2019-02-11T13:13:10.395Z,81.50
2019-02-11T13:16:00.103Z,81.60
2019-02-11T13:18:17.199Z,82.50
2019-02-11T13:20:48.959Z,83.00
2019-02-11T13:23:20.178Z,84.10
2019-02-11T13:25:51.349Z,84.80
2019-02-11T13:28:22.602Z,85.50
2019-02-11T13:30:53.814Z,85.50
2019-02-11T13:33:25.043Z,86.30
2019-02-11T13:35:56.275Z,85.60
2019-02-11T13:38:27.511Z,85.60
2019-02-11T13:41:00.918Z,86.10
2019-02-11T13:43:32.250Z,86.30
2019-02-11T13:46:03.804Z,86.40
2019-02-11T13:48:35.095Z,86.70
2019-02-11T13:51:06.532Z,87.70
2019-02-11T13:53:43.365Z,89.10
2019-02-11T13:56:11.771Z,89.10
2019-02-11T13:58:43.515Z,89.00
2019-02-11T14:01:14.784Z,90.00
2019-02-11T14:03:46.144Z,90.20
2019-02-11T14:06:17.420Z,89.90
2019-02-11T14:08:51.753Z,90.30
2019-02-11T14:11:22.913Z,90.50
2019-02-11T14:14:02.633Z,90.60
2019-02-11T14:16:26.864Z,90.70
2019-02-11T14:18:59.634Z,90.70
2019-02-11T14:21:30.906Z,90.70
2019-02-11T14:24:03.727Z,90.50
2019-02-11T14:26:41.100Z,90.70
2019-02-11T14:29:09.153Z,90.70
2019-02-11T14:31:40.912Z,90.60
2019-02-11T14:34:13.352Z,90.70
2019-02-11T14:36:44.678Z,90.70
2019-02-11T14:39:15.978Z,90.70
2019-02-11T14:41:48.283Z,90.60
2019-02-11T14:44:19.744Z,90.50
2019-02-11T14:46:51.164Z,90.40
2019-02-11T14:50:06.872Z,90.20
2019-02-11T14:53:00.463Z,89.60
2019-02-11T14:55:31.813Z,89.90
2019-02-11T14:58:03.056Z,89.70
2019-02-11T15:00:34.326Z,89.60
2019-02-11T15:03:05.621Z,89.60
2019-02-11T15:05:36.862Z,89.50
2019-02-11T15:08:08.086Z,89.10
2019-02-11T15:10:39.388Z,89.30
2019-02-11T15:13:10.627Z,89.30
2019-02-11T15:15:41.986Z,88.80
2019-02-11T15:18:13.261Z,89.00
2019-02-11T15:20:47.191Z,89.40
2019-02-11T15:23:18.510Z,88.90
2019-02-11T15:25:49.898Z,88.50
2019-02-11T15:28:21.186Z,88.70
2019-02-11T15:30:59.276Z,88.10
2019-02-11T15:33:30.402Z,88.30
2019-02-11T15:36:01.687Z,88.10
2019-02-11T15:38:33.933Z,88.00
2019-02-11T15:41:05.197Z,87.60
2019-02-11T15:43:36.350Z,87.60
2019-02-11T15:46:08.814Z,88.20
2019-02-11T15:48:43.103Z,88.10
2019-02-11T15:51:13.313Z,88.20
2019-02-11T15:53:46.070Z,88.10
2019-02-11T15:56:17.335Z,88.10
2019-02-11T15:58:48.561Z,88.30
2019-02-11T16:01:19.796Z,88.30
2019-02-11T16:03:51.022Z,88.30
2019-02-11T16:06:23.233Z,88.50
2019-02-11T16:08:54.487Z,88.30
2019-02-11T16:11:25.820Z,88.40
2019-02-11T16:13:57.027Z,88.20
2019-02-11T16:16:28.174Z,88.10
2019-02-11T16:18:59.392Z,88.00
2019-02-11T16:21:30.569Z,87.90
2019-02-11T16:24:01.802Z,87.80
2019-02-11T16:26:34.185Z,87.90
2019-02-11T16:29:05.532Z,88.20
2019-02-11T16:31:36.832Z,88.10
2019-02-11T16:34:10.421Z,88.40
2019-02-11T16:36:43.200Z,88.70
2019-02-11T16:39:14.442Z,89.80
2019-02-11T16:41:45.734Z,88.90
2019-02-11T16:44:16.990Z,88.60
2019-02-11T16:46:48.181Z,89.30
2019-02-11T16:49:21.272Z,89.00
2019-02-11T16:51:52.547Z,89.30
2019-02-11T16:54:23.900Z,89.30
2019-02-11T16:56:55.096Z,89.40
2019-02-11T17:20:48.087Z,92.20
2019-02-11T17:23:20.337Z,92.60
2019-02-11T17:25:53.075Z,92.90
2019-02-11T17:28:24.298Z,93.10
2019-02-11T17:30:55.553Z,92.80
2019-02-11T17:33:26.785Z,93.20
2019-02-11T17:35:57.957Z,93.00
2019-02-11T17:38:37.153Z,92.90
2019-02-11T17:41:08.273Z,93.20
2019-02-11T17:43:39.478Z,93.30
2019-02-11T17:46:10.762Z,93.00
2019-02-11T17:48:41.914Z,92.70
2019-02-11T17:51:21.980Z,92.60
2019-02-11T17:53:53.190Z,92.50
2019-02-11T17:56:25.739Z,92.60
2019-02-11T17:58:56.915Z,92.90
2019-02-11T18:01:28.233Z,92.70
2019-02-11T18:04:00.565Z,92.60
2019-02-11T18:06:33.294Z,92.60
2019-02-11T18:09:05.388Z,92.80
2019-02-11T18:11:36.611Z,92.50
2019-02-11T18:14:09.225Z,92.30
2019-02-11T18:16:40.394Z,92.20
2019-02-11T18:19:11.564Z,92.20
2019-02-11T18:21:42.711Z,92.30
2019-02-11T18:24:15.505Z,92.10
2019-02-11T18:26:48.067Z,91.90
2019-02-11T18:29:19.241Z,91.90
2019-02-11T18:31:50.405Z,91.70
2019-02-11T18:34:21.638Z,91.70
2019-02-11T18:36:52.634Z,91.70
2019-02-11T18:39:23.663Z,91.40
2019-02-11T18:41:54.799Z,91.50
2019-02-11T18:44:25.894Z,91.30
2019-02-11T18:46:57.042Z,91.40
2019-02-11T18:49:34.351Z,91.50
2019-02-11T18:52:00.946Z,91.50
2019-02-11T18:54:32.115Z,91.60
2019-02-11T18:57:03.650Z,92.00
2019-02-11T18:59:34.677Z,91.90
2019-02-11T19:02:07.304Z,91.90
2019-02-11T19:04:38.401Z,91.90
2019-02-11T19:07:09.565Z,91.90
2019-02-11T19:09:40.732Z,92.00
2019-02-11T19:12:15.046Z,91.80
2019-02-11T19:14:46.162Z,91.60
2019-02-11T19:17:17.318Z,91.50
2019-02-11T19:19:51.384Z,91.60
2019-02-11T19:22:22.457Z,91.10
2019-02-11T19:24:53.658Z,91.10
2019-02-11T19:27:24.895Z,90.80
2019-02-11T19:29:56.099Z,90.30
2019-02-11T19:32:27.206Z,90.50
2019-02-11T19:35:01.360Z,90.20
2019-02-11T19:37:35.525Z,90.10
2019-02-11T19:40:10.056Z,90.00
2019-02-11T19:42:41.897Z,90.00
2019-02-11T19:45:18.204Z,89.60
2019-02-11T19:47:49.448Z,89.50
2019-02-11T19:50:20.954Z,89.50
2019-02-11T19:52:52.167Z,89.30
2019-02-11T19:55:23.496Z,90.00
2019-02-11T19:57:54.705Z,90.10
2019-02-11T20:00:25.928Z,89.70
2019-02-11T20:02:57.174Z,89.30
2019-02-11T20:05:32.354Z,88.70
2019-02-11T20:08:03.611Z,88.40
2019-02-11T20:10:37.790Z,88.70
2019-02-11T20:13:10.906Z,88.50
2019-02-11T20:15:42.159Z,88.50
2019-02-11T20:18:13.426Z,88.90
2019-02-11T20:20:44.654Z,88.60
2019-02-11T20:23:15.846Z,88.50
2019-02-11T20:25:50.376Z,88.40
2019-02-11T20:28:21.675Z,88.30
2019-02-11T20:30:57.386Z,88.30
2019-02-11T20:33:28.594Z,88.00
2019-02-11T20:35:59.841Z,88.10
2019-02-11T20:38:31.104Z,88.60
2019-02-11T20:41:02.352Z,88.60
2019-02-11T20:43:35.973Z,89.00
2019-02-11T20:46:07.153Z,88.50
2019-02-11T20:48:39.340Z,88.40
2019-02-11T20:51:10.887Z,88.40
2019-02-11T20:53:42.172Z,88.70
2019-02-11T20:56:13.515Z,88.10
2019-02-11T20:58:47.354Z,88.40
2019-02-11T21:01:20.937Z,88.30
2019-02-11T21:03:52.196Z,88.10
2019-02-11T21:06:23.426Z,88.50
2019-02-11T21:08:54.652Z,88.90
2019-02-11T21:11:27.389Z,88.00
2019-02-11T21:13:58.518Z,88.10
2019-02-11T21:16:29.816Z,88.10
2019-02-11T21:19:01.010Z,88.40
2019-02-11T21:21:32.206Z,87.80
2019-02-11T21:24:03.459Z,88.10
2019-02-11T21:26:34.717Z,88.60
2019-02-11T21:29:05.940Z,89.10
2019-02-11T21:31:37.077Z,88.60
2019-02-11T21:34:08.303Z,90.10
2019-02-11T21:36:42.358Z,88.90
2019-02-11T21:39:14.931Z,89.20
2019-02-11T21:41:46.139Z,89.90
2019-02-11T21:44:17.375Z,90.50
2019-02-11T21:46:48.754Z,90.80
2019-02-11T21:49:21.905Z,91.00
2019-02-11T21:51:54.918Z,91.20
2019-02-11T21:54:26.155Z,91.50
2019-02-11T21:56:57.400Z,91.50
2019-02-11T21:59:29.563Z,91.60
2019-02-11T22:02:01.757Z,91.60
2019-02-11T22:04:32.996Z,91.60
2019-02-11T22:07:16.563Z,91.30
2019-02-11T22:09:47.686Z,91.30
2019-02-11T22:12:18.894Z,91.10
2019-02-11T22:14:50.149Z,91.20
2019-02-11T22:20:53.526Z,91.00
2019-02-11T22:23:29.110Z,90.90
2019-02-11T22:26:00.388Z,91.30
2019-02-11T22:28:31.573Z,91.40
2019-02-11T22:31:02.821Z,91.40
2019-02-11T22:33:34.014Z,91.60
2019-02-11T22:36:05.479Z,91.90
2019-02-11T22:38:36.703Z,92.10
2019-02-11T22:41:07.955Z,92.30
2019-02-11T22:43:39.126Z,92.40
2019-02-11T22:46:10.410Z,92.50
2019-02-11T22:48:41.607Z,92.50
2019-02-11T22:51:12.907Z,92.50
2019-02-11T23:00:21.538Z,93.20
2019-02-11T23:06:17.726Z,93.90
2019-02-11T23:08:48.928Z,93.90
2019-02-11T23:11:20.209Z,94.20
2019-02-11T23:13:51.455Z,94.20
2019-02-11T23:16:24.667Z,94.00
2019-02-11T23:18:55.811Z,94.10
2019-02-11T23:21:27.129Z,94.20
2019-02-11T23:27:29.085Z,94.30
2019-02-11T23:30:01.794Z,94.40
2019-02-11T23:32:33.208Z,94.90
2019-02-11T23:38:35.021Z,94.80
2019-02-11T23:57:24.209Z,95.60
2019-02-11T23:59:56.426Z,95.40
